Terminal Aerodrome Forecast
Issued by NWS Northern Indiana

Home | Current Version | Previous Version | Graphics & Text | Print | Product List | Glossary On
Versions: 1 2 3 4 5 6 7 8 9 10 11 12 13
000
FTUS43 KIWX 261120
TAFFWA
TAF
KFWA 261120Z 2612/2712 22008KT P6SM SCT020
      TEMPO 2612/2615 BKN020
     FM261800 21009KT P6SM BKN045
     FM270000 20007KT P6SM SCT100=

USA.gov is the U.S. government's official web portal to all federal, state and local government web resources and services.